createdAt,value
2023-03-12T00:00:04.607Z,90.22
2023-03-12T00:04:09.690Z,90.17
2023-03-12T00:08:13.846Z,91.69
2023-03-12T00:12:16.824Z,91.08
2023-03-12T00:16:20.588Z,91.47
2023-03-12T00:20:26.385Z,90.49
2023-03-12T00:24:29.667Z,90.75
2023-03-12T00:28:33.102Z,90.34
2023-03-12T00:32:36.981Z,88.86
2023-03-12T00:36:41.938Z,90.44
2023-03-12T00:40:45.727Z,92.48
2023-03-12T00:44:48.674Z,92.27
2023-03-12T00:48:51.829Z,91.18
2023-03-12T00:52:56.550Z,92.00
2023-03-12T00:56:59.684Z,91.76
2023-03-12T01:01:02.831Z,92.58
2023-03-12T01:05:06.995Z,92.26
2023-03-12T01:09:11.635Z,90.71
2023-03-12T01:13:14.465Z,90.00
2023-03-12T01:17:17.407Z,91.01
2023-03-12T01:21:20.412Z,90.76
2023-03-12T01:25:25.273Z,89.96
2023-03-12T01:29:28.552Z,90.44
2023-03-12T01:33:31.522Z,90.76
2023-03-12T01:37:35.377Z,90.85
2023-03-12T01:41:40.056Z,92.52
2023-03-12T01:46:06.818Z,91.19
2023-03-12T01:50:10.783Z,89.06
2023-03-12T01:54:17.960Z,88.97
2023-03-12T01:58:23.081Z,88.67
2023-03-12T02:02:28.890Z,90.08
2023-03-12T02:06:36.546Z,87.71
2023-03-12T02:10:39.798Z,88.96
2023-03-12T02:14:44.026Z,87.25
2023-03-12T02:18:48.647Z,88.75
2023-03-12T02:22:53.362Z,89.53
2023-03-12T02:26:58.600Z,89.29
2023-03-12T02:31:05.060Z,89.53
2023-03-12T02:35:08.611Z,90.01
2023-03-12T02:39:12.876Z,89.87
2023-03-12T02:43:20.685Z,88.77
2023-03-12T02:47:24.066Z,86.97
2023-03-12T02:51:27.200Z,88.49
2023-03-12T02:55:30.460Z,86.84
2023-03-12T02:59:35.194Z,88.66
2023-03-12T03:03:38.432Z,88.14
2023-03-12T03:07:41.633Z,88.02
2023-03-12T03:11:44.839Z,87.69
2023-03-12T03:15:49.465Z,86.71
2023-03-12T03:19:53.011Z,89.35
2023-03-12T03:23:56.168Z,89.66
2023-03-12T03:27:59.583Z,90.22
2023-03-12T03:32:04.143Z,90.53
2023-03-12T03:36:08.737Z,89.29
2023-03-12T03:40:12.583Z,89.63
2023-03-12T03:44:15.421Z,90.77
2023-03-12T03:48:19.496Z,89.54
2023-03-12T03:52:22.424Z,88.14
2023-03-12T03:56:25.812Z,90.60
2023-03-12T04:00:29.085Z,89.95
2023-03-12T04:04:33.533Z,89.91
2023-03-12T04:08:37.882Z,90.73
2023-03-12T04:12:41.159Z,90.74
2023-03-12T04:16:44.444Z,90.84
2023-03-12T04:20:48.879Z,89.59
2023-03-12T04:24:51.881Z,88.89
2023-03-12T04:28:55.278Z,87.55
2023-03-12T04:32:58.501Z,85.67
2023-03-12T04:37:03.698Z,87.25
2023-03-12T04:41:08.572Z,87.93
2023-03-12T04:45:13.397Z,89.49
2023-03-12T04:49:16.773Z,88.89
2023-03-12T04:53:21.740Z,91.62
2023-03-12T04:57:24.936Z,92.61
2023-03-12T05:01:29.963Z,93.05
2023-03-12T05:05:33.294Z,92.66
2023-03-12T05:09:37.897Z,94.32
2023-03-12T05:13:41.584Z,94.53
2023-03-12T05:17:44.793Z,95.33
2023-03-12T05:21:48.069Z,95.67
2023-03-12T05:25:52.732Z,95.58
2023-03-12T05:29:55.997Z,96.74
2023-03-12T05:33:59.289Z,96.11
2023-03-12T05:38:02.501Z,96.56
2023-03-12T05:42:07.184Z,94.05
2023-03-12T05:46:11.140Z,95.33
2023-03-12T05:50:14.125Z,96.43
2023-03-12T05:54:17.124Z,96.20
2023-03-12T05:58:21.714Z,96.21
2023-03-12T06:02:24.500Z,96.82
2023-03-12T06:06:27.427Z,97.42
2023-03-12T06:10:30.442Z,98.09
2023-03-12T06:14:34.661Z,97.83
2023-03-12T06:18:37.522Z,97.81
2023-03-12T06:22:40.601Z,97.97
2023-03-12T06:26:43.475Z,97.58
2023-03-12T06:30:47.887Z,97.61
2023-03-12T06:34:50.803Z,98.22
2023-03-12T06:38:56.610Z,98.07
2023-03-12T06:42:59.909Z,98.13
2023-03-12T06:47:04.323Z,98.37
2023-03-12T06:51:07.870Z,98.10
2023-03-12T06:55:11.198Z,98.86
2023-03-12T06:59:14.397Z,98.22
2023-03-12T07:03:18.630Z,98.10
2023-03-12T07:07:21.653Z,98.12
2023-03-12T07:11:24.486Z,98.07
2023-03-12T07:15:29.541Z,96.92
2023-03-12T07:19:33.611Z,97.33
2023-03-12T07:23:36.816Z,96.78
2023-03-12T07:27:39.754Z,96.30
2023-03-12T07:31:43.249Z,96.79
2023-03-12T07:35:51.286Z,97.75
2023-03-12T07:39:54.977Z,97.55
2023-03-12T07:43:58.459Z,97.64
2023-03-12T07:48:01.922Z,97.07
2023-03-12T07:52:10.097Z,96.78
2023-03-12T07:56:13.575Z,97.27
2023-03-12T08:00:19.697Z,97.00
2023-03-12T08:04:23.586Z,97.27
2023-03-12T08:08:28.681Z,96.92
2023-03-12T08:12:32.214Z,96.36
2023-03-12T08:16:35.097Z,96.80
2023-03-12T08:20:38.281Z,96.94
2023-03-12T08:24:42.605Z,96.55
2023-03-12T08:28:45.922Z,96.53
2023-03-12T08:32:48.842Z,94.91
2023-03-12T08:36:52.121Z,96.29
2023-03-12T08:41:01.086Z,96.13
2023-03-12T08:45:06.017Z,97.24
2023-03-12T08:49:17.915Z,97.71
2023-03-12T08:53:21.097Z,96.26
2023-03-12T08:57:25.836Z,95.02
2023-03-12T09:01:28.704Z,96.31
2023-03-12T09:05:31.713Z,95.34
2023-03-12T09:09:34.765Z,95.33
2023-03-12T09:13:58.132Z,95.50
2023-03-12T09:18:02.414Z,96.44
2023-03-12T09:22:05.743Z,95.50
2023-03-12T09:26:10.628Z,95.77
2023-03-12T09:30:17.074Z,94.52
2023-03-12T09:34:19.909Z,95.51
2023-03-12T09:38:23.374Z,93.55
2023-03-12T09:42:29.203Z,93.97
2023-03-12T09:46:37.072Z,95.27
2023-03-12T09:50:44.254Z,95.56
2023-03-12T09:54:52.057Z,95.28
2023-03-12T09:58:56.399Z,94.70
2023-03-12T10:03:19.542Z,94.44
2023-03-12T10:07:28.061Z,93.76
2023-03-12T10:11:42.232Z,90.94
2023-03-12T10:15:54.005Z,93.18
2023-03-12T10:20:25.909Z,93.85
2023-03-12T10:24:38.398Z,93.69
2023-03-12T10:28:44.612Z,93.98
2023-03-12T10:32:49.775Z,92.52
2023-03-12T10:36:56.464Z,91.92
2023-03-12T10:40:59.341Z,90.91
2023-03-12T10:45:22.224Z,90.74
2023-03-12T10:49:30.483Z,90.62
2023-03-12T10:53:35.989Z,91.19
2023-03-12T10:57:41.259Z,90.47
2023-03-12T11:01:48.850Z,88.93
2023-03-12T11:05:54.257Z,89.50
2023-03-12T11:10:21.052Z,88.00
2023-03-12T11:14:25.642Z,87.92
2023-03-12T11:18:34.279Z,88.95
2023-03-12T11:22:37.158Z,86.66
2023-03-12T11:26:49.488Z,88.24
2023-03-12T11:30:54.822Z,87.01
2023-03-12T11:34:57.754Z,87.37
2023-03-12T11:39:04.570Z,86.18
2023-03-12T11:43:43.743Z,86.70
2023-03-12T11:47:57.651Z,84.23
2023-03-12T11:52:04.844Z,85.03
2023-03-12T11:56:23.162Z,84.63
2023-03-12T12:00:34.783Z,85.28
2023-03-12T12:04:52.516Z,84.23
2023-03-12T12:09:09.800Z,80.68
2023-03-12T12:13:18.460Z,80.62
2023-03-12T12:17:29.589Z,81.81
2023-03-12T12:21:46.944Z,80.68
2023-03-12T12:26:10.404Z,79.24
2023-03-12T12:30:20.689Z,79.73
2023-03-12T12:34:47.239Z,77.24
2023-03-12T12:38:54.578Z,76.46
2023-03-12T12:43:03.675Z,74.87
2023-03-12T12:47:08.168Z,75.01
2023-03-12T12:51:13.108Z,74.45
2023-03-12T12:55:21.666Z,76.37
2023-03-12T12:59:33.256Z,73.97
2023-03-12T13:03:36.863Z,74.62
2023-03-12T13:07:41.005Z,74.88
2023-03-12T13:11:46.932Z,74.99
2023-03-12T13:15:49.867Z,74.71
2023-03-12T13:20:01.421Z,72.98
2023-03-12T13:24:17.910Z,70.19
2023-03-12T13:28:37.136Z,68.83
2023-03-12T13:33:12.371Z,70.73
2023-03-12T13:37:30.886Z,70.42
2023-03-12T13:41:38.178Z,71.00
2023-03-12T13:45:57.543Z,71.85
2023-03-12T13:50:02.130Z,70.25
2023-03-12T13:54:05.251Z,71.02
2023-03-12T13:58:11.515Z,70.72
2023-03-12T14:02:23.089Z,69.77
2023-03-12T14:06:30.526Z,69.31
2023-03-12T14:10:41.241Z,70.39
2023-03-12T14:14:51.569Z,70.03
2023-03-12T14:18:54.834Z,71.14
2023-03-12T14:23:01.864Z,70.28
2023-03-12T14:27:06.627Z,73.10
2023-03-12T14:31:14.093Z,69.83
2023-03-12T14:35:21.816Z,69.93
2023-03-12T14:39:29.201Z,70.71
2023-03-12T14:43:33.845Z,69.16
2023-03-12T14:47:42.363Z,68.35
2023-03-12T14:51:45.318Z,69.09
2023-03-12T14:55:48.189Z,68.30
2023-03-12T14:59:53.474Z,68.26
2023-03-12T15:04:01.263Z,68.95
2023-03-12T15:08:04.958Z,68.63
2023-03-12T15:12:09.670Z,66.74
2023-03-12T15:16:12.552Z,65.26
2023-03-12T15:20:17.872Z,66.73
2023-03-12T15:24:21.142Z,66.63
2023-03-12T15:28:29.565Z,65.78
2023-03-12T15:32:32.875Z,65.52
2023-03-12T15:36:37.092Z,68.56
2023-03-12T15:40:40.266Z,68.35
2023-03-12T15:44:46.104Z,68.64
2023-03-12T15:48:50.358Z,67.96
2023-03-12T15:53:02.480Z,68.65
2023-03-12T15:57:22.480Z,67.43
2023-03-12T16:01:28.201Z,68.45
2023-03-12T16:05:34.211Z,70.64
2023-03-12T16:09:38.446Z,70.38
2023-03-12T16:13:42.044Z,70.01
2023-03-12T16:17:44.661Z,69.87
2023-03-12T16:21:47.408Z,71.82
2023-03-12T16:25:53.168Z,71.79
2023-03-12T16:29:55.963Z,72.57
2023-03-12T16:33:59.052Z,71.96
2023-03-12T16:38:02.176Z,71.30
2023-03-12T16:42:17.086Z,72.03
2023-03-12T16:46:21.836Z,72.66
2023-03-12T16:50:26.392Z,72.67
2023-03-12T16:54:29.378Z,72.68
2023-03-12T16:58:33.641Z,73.16
2023-03-12T17:02:37.004Z,72.56
2023-03-12T17:06:40.462Z,72.31
2023-03-12T17:10:43.572Z,73.02
2023-03-12T17:14:48.242Z,71.51
2023-03-12T17:18:51.232Z,73.01
2023-03-12T17:22:54.286Z,72.62
2023-03-12T17:26:58.156Z,72.59
2023-03-12T17:31:02.757Z,71.05
2023-03-12T17:35:06.886Z,72.37
2023-03-12T17:39:09.604Z,71.59
2023-03-12T17:43:13.646Z,72.29
2023-03-12T17:47:17.859Z,71.38
2023-03-12T17:51:22.787Z,72.44
2023-03-12T17:55:26.709Z,71.83
2023-03-12T17:59:29.452Z,72.60
2023-03-12T18:03:34.202Z,72.49
2023-03-12T18:07:37.100Z,72.17
2023-03-12T18:11:39.915Z,72.88
2023-03-12T18:15:42.939Z,72.15
2023-03-12T18:19:47.615Z,71.60
2023-03-12T18:23:50.956Z,72.33
2023-03-12T18:27:56.636Z,71.90
2023-03-12T18:31:59.993Z,71.59
2023-03-12T18:36:05.161Z,70.20
2023-03-12T18:40:08.992Z,73.29
2023-03-12T18:44:13.152Z,73.46
2023-03-12T18:48:16.444Z,72.30
2023-03-12T18:52:20.792Z,72.18
2023-03-12T18:56:24.013Z,72.10
2023-03-12T19:00:26.878Z,72.35
2023-03-12T19:04:29.898Z,73.35
2023-03-12T19:08:35.111Z,73.15
2023-03-12T19:12:51.661Z,72.07
2023-03-12T19:16:55.397Z,75.03
2023-03-12T19:20:58.350Z,72.93
2023-03-12T19:25:02.774Z,73.35
2023-03-12T19:29:05.403Z,73.45
2023-03-12T19:33:09.108Z,73.57
2023-03-12T19:37:12.132Z,73.25
2023-03-12T19:41:16.684Z,74.02
2023-03-12T19:45:19.561Z,74.86
2023-03-12T19:49:23.117Z,74.94
2023-03-12T19:53:26.366Z,74.63
2023-03-12T19:57:30.619Z,75.14
2023-03-12T20:01:33.834Z,74.73
2023-03-12T20:05:36.783Z,76.04
2023-03-12T20:09:39.761Z,75.90
2023-03-12T20:13:44.491Z,75.42
2023-03-12T20:17:47.843Z,76.06
2023-03-12T20:21:50.624Z,75.16
2023-03-12T20:25:54.116Z,77.11
2023-03-12T20:29:59.136Z,77.90
2023-03-12T20:34:02.356Z,77.10
2023-03-12T20:38:05.588Z,77.71
2023-03-12T20:42:08.254Z,78.24
2023-03-12T20:46:13.850Z,79.46
2023-03-12T20:50:17.353Z,80.18
2023-03-12T20:54:20.251Z,80.16
2023-03-12T20:58:24.334Z,80.77
2023-03-12T21:02:29.914Z,80.98
2023-03-12T21:06:32.901Z,80.43
2023-03-12T21:10:37.042Z,82.27
2023-03-12T21:14:41.944Z,83.38
2023-03-12T21:18:46.264Z,83.00
2023-03-12T21:22:50.272Z,82.69
2023-03-12T21:26:54.249Z,81.54
2023-03-12T21:30:57.152Z,82.33
2023-03-12T21:35:02.320Z,82.49
2023-03-12T21:39:08.517Z,82.41
2023-03-12T21:43:11.225Z,82.10
2023-03-12T21:47:13.980Z,81.82
2023-03-12T21:51:19.203Z,81.01
2023-03-12T21:55:22.056Z,81.18
2023-03-12T21:59:25.415Z,82.89
2023-03-12T22:03:28.196Z,81.30
2023-03-12T22:07:32.699Z,80.46
2023-03-12T22:11:35.662Z,80.29
2023-03-12T22:15:38.618Z,80.17
2023-03-12T22:19:42.217Z,79.46
2023-03-12T22:23:48.326Z,79.81
2023-03-12T22:27:51.134Z,78.65
2023-03-12T22:31:54.262Z,79.11
2023-03-12T22:35:57.085Z,78.40
2023-03-12T22:40:06.837Z,78.60
2023-03-12T22:44:10.489Z,78.22
2023-03-12T22:48:13.229Z,77.70
2023-03-12T22:52:18.145Z,78.72
2023-03-12T22:56:25.276Z,78.88
2023-03-12T23:00:28.161Z,78.65
2023-03-12T23:04:31.049Z,78.51
2023-03-12T23:08:33.862Z,78.62
2023-03-12T23:12:38.037Z,79.23
2023-03-12T23:16:41.017Z,79.31
2023-03-12T23:20:44.034Z,79.18
2023-03-12T23:24:46.910Z,79.44
2023-03-12T23:28:53.353Z,79.93
2023-03-12T23:32:56.868Z,77.98
2023-03-12T23:36:59.896Z,78.93
2023-03-12T23:41:03.024Z,78.24
2023-03-12T23:45:09.360Z,77.95
2023-03-12T23:49:12.868Z,77.65
2023-03-12T23:53:15.786Z,77.56
2023-03-12T23:57:18.466Z,78.49
